Time;durP1;ratioP1;P1;durP2;ratioP2;P2;SDS_P1;SDS_P2;PMS_P1;PMS_P2;Temp;Humidity;BMP_temperature;BMP_pressure;BME280_temperature;BME280_humidity;BME280_pressure;Samples;Min_cycle;Max_cycle;Signal;HPM_P1;HPM_P2
2023/10/31 00:02:25;;;;;;;10.98;4.95;;;;;;;;;;6247988;22;20351;-85
2023/10/31 00:04:51;;;;;;;7.25;4.63;;;;;;;;;;6248005;22;20015;-85
2023/10/31 00:07:17;;;;;;;12.63;4.55;;;;;;;;;;6248275;22;20022;-85
2023/10/31 00:09:43;;;;;;;7.72;4.45;;;;;;;;;;6246615;22;20063;-85
2023/10/31 00:12:09;;;;;;;9.32;4.28;;;;;;;;;;6247670;22;20023;-85
2023/10/31 00:14:35;;;;;;;8.50;3.80;;;;;;;;;;6248160;22;20016;-85
2023/10/31 00:17:01;;;;;;;10.48;4.53;;;;;;;;;;6247771;22;20012;-85
2023/10/31 00:19:27;;;;;;;8.73;4.45;;;;;;;;;;6247541;22;20023;-86
2023/10/31 00:21:53;;;;;;;8.55;4.55;;;;;;;;;;6222939;22;20096;-86
2023/10/31 00:24:19;;;;;;;10.27;4.35;;;;;;;;;;6223642;22;20016;-85
2023/10/31 00:26:46;;;;;;;8.35;4.07;;;;;;;;;;6248035;22;20097;-85
2023/10/31 00:29:12;;;;;;;8.77;4.15;;;;;;;;;;6248459;22;20023;-85
2023/10/31 00:31:41;;;;;;;8.98;3.85;;;;;;;;;;6248645;22;20023;-85
2023/10/31 00:34:07;;;;;;;8.57;3.65;;;;;;;;;;6249947;22;20016;-85
2023/10/31 00:36:34;;;;;;;6.82;3.90;;;;;;;;;;6249933;22;20023;-85
2023/10/31 00:39:00;;;;;;;7.35;3.75;;;;;;;;;;6224594;22;20015;-85
2023/10/31 00:41:26;;;;;;;8.65;4.10;;;;;;;;;;6250272;22;20012;-85
2023/10/31 00:43:52;;;;;;;6.50;3.63;;;;;;;;;;6249697;22;20019;-85
2023/10/31 00:46:18;;;;;;;9.27;4.00;;;;;;;;;;6249558;22;20012;-85
2023/10/31 00:48:44;;;;;;;8.02;3.70;;;;;;;;;;6249903;22;20030;-85
2023/10/31 00:51:10;;;;;;;7.70;3.90;;;;;;;;;;6224590;22;20351;-85
2023/10/31 00:53:36;;;;;;;8.02;3.60;;;;;;;;;;6249254;22;20023;-84
2023/10/31 00:56:02;;;;;;;7.13;3.53;;;;;;;;;;6248856;22;20109;-85
2023/10/31 00:58:28;;;;;;;6.35;3.00;;;;;;;;;;6249197;22;20015;-85
2023/10/31 01:00:54;;;;;;;8.25;2.90;;;;;;;;;;6249807;22;20018;-85
2023/10/31 01:03:20;;;;;;;5.55;2.42;;;;;;;;;;6249492;22;20025;-84
2023/10/31 01:05:46;;;;;;;5.28;2.30;;;;;;;;;;6249505;22;20019;-84
2023/10/31 01:08:12;;;;;;;8.48;2.65;;;;;;;;;;6249757;22;20448;-84
2023/10/31 01:10:39;;;;;;;7.85;2.45;;;;;;;;;;6248498;22;20035;-84
2023/10/31 01:13:05;;;;;;;3.20;1.92;;;;;;;;;;6249349;22;20339;-84
2023/10/31 01:15:31;;;;;;;6.35;2.40;;;;;;;;;;6249108;22;20459;-84
2023/10/31 01:17:57;;;;;;;4.72;2.13;;;;;;;;;;6249650;22;20012;-84
2023/10/31 01:20:23;;;;;;;4.15;1.83;;;;;;;;;;6249951;22;20011;-84
2023/10/31 01:22:49;;;;;;;4.13;1.98;;;;;;;;;;6247971;22;20452;-84
2023/10/31 01:25:15;;;;;;;4.47;1.90;;;;;;;;;;6249600;22;20042;-84
2023/10/31 01:27:42;;;;;;;6.80;2.10;;;;;;;;;;6249149;22;20016;-84
2023/10/31 01:30:08;;;;;;;4.40;2.10;;;;;;;;;;6249722;22;20023;-85
2023/10/31 01:32:34;;;;;;;8.50;2.50;;;;;;;;;;6249090;22;20015;-84
2023/10/31 01:35:01;;;;;;;5.70;2.10;;;;;;;;;;6249238;22;20019;-84
2023/10/31 01:37:27;;;;;;;5.78;2.45;;;;;;;;;;6249244;22;20344;-84
2023/10/31 01:39:53;;;;;;;6.00;2.03;;;;;;;;;;6249073;22;20094;-84
2023/10/31 01:42:19;;;;;;;4.63;2.03;;;;;;;;;;6223755;22;20016;-84
2023/10/31 01:44:45;;;;;;;7.82;2.80;;;;;;;;;;6248101;22;20463;-84
2023/10/31 01:47:11;;;;;;;6.60;2.53;;;;;;;;;;6249063;22;20051;-84
2023/10/31 01:49:37;;;;;;;7.20;3.22;;;;;;;;;;6248578;22;20031;-84
2023/10/31 01:52:04;;;;;;;10.30;3.38;;;;;;;;;;6246287;22;20070;-84
2023/10/31 01:54:30;;;;;;;7.50;3.15;;;;;;;;;;6246717;22;20080;-85
2023/10/31 01:56:57;;;;;;;8.13;3.55;;;;;;;;;;6248289;22;20356;-84
2023/10/31 01:59:30;;;;;;;8.57;3.85;;;;;;;;;;6224705;22;20016;-85
2023/10/31 02:01:57;;;;;;;12.18;4.38;;;;;;;;;;6247199;22;20452;-85
2023/10/31 02:04:23;;;;;;;13.30;4.90;;;;;;;;;;6248350;22;20098;-85
2023/10/31 02:06:49;;;;;;;8.40;4.22;;;;;;;;;;6248127;22;20016;-86
2023/10/31 02:09:15;;;;;;;12.75;4.78;;;;;;;;;;6222814;22;20459;-85
2023/10/31 02:11:41;;;;;;;12.38;5.05;;;;;;;;;;6246701;22;20016;-85
2023/10/31 02:14:07;;;;;;;13.20;4.70;;;;;;;;;;6245851;22;20016;-84
2023/10/31 02:16:33;;;;;;;10.55;4.45;;;;;;;;;;6247620;22;20347;-84
2023/10/31 02:18:59;;;;;;;14.85;4.28;;;;;;;;;;6247127;22;20356;-84
2023/10/31 02:21:25;;;;;;;8.02;3.63;;;;;;;;;;6247244;22;20358;-84
2023/10/31 02:23:59;;;;;;;9.07;4.03;;;;;;;;;;6246083;22;20436;-84
2023/10/31 02:26:28;;;;;;;10.70;4.38;;;;;;;;;;6248328;22;20085;-83
2023/10/31 02:28:55;;;;;;;9.45;3.80;;;;;;;;;;6247120;22;20411;-83
2023/10/31 02:31:21;;;;;;;9.38;3.55;;;;;;;;;;6247534;22;20026;-83
2023/10/31 02:33:47;;;;;;;8.90;3.67;;;;;;;;;;6246163;22;20020;-83
2023/10/31 02:36:13;;;;;;;14.15;3.80;;;;;;;;;;6247835;22;20023;-83
2023/10/31 02:38:39;;;;;;;9.60;3.67;;;;;;;;;;6247420;22;20023;-83
2023/10/31 02:41:06;;;;;;;9.27;3.83;;;;;;;;;;6247577;22;20020;-83
2023/10/31 02:43:32;;;;;;;12.07;3.90;;;;;;;;;;6247251;22;20019;-83
2023/10/31 02:45:58;;;;;;;6.65;4.00;;;;;;;;;;6247456;22;20463;-83
2023/10/31 02:48:24;;;;;;;8.05;3.58;;;;;;;;;;6246508;22;20024;-83
2023/10/31 02:50:51;;;;;;;11.43;4.05;;;;;;;;;;6248552;22;20012;-83
2023/10/31 02:53:19;;;;;;;9.95;3.58;;;;;;;;;;6248690;22;20019;-83
2023/10/31 02:55:45;;;;;;;12.70;4.03;;;;;;;;;;6248886;22;20325;-83
2023/10/31 02:58:11;;;;;;;11.50;3.83;;;;;;;;;;6248580;22;20019;-83
2023/10/31 03:00:37;;;;;;;10.90;3.35;;;;;;;;;;6248923;22;20019;-83
2023/10/31 03:03:04;;;;;;;11.88;3.88;;;;;;;;;;6248532;22;20028;-83
2023/10/31 03:05:30;;;;;;;12.30;3.53;;;;;;;;;;6248724;22;20361;-83
2023/10/31 03:07:56;;;;;;;12.00;3.35;;;;;;;;;;6248516;22;20095;-83
2023/10/31 03:10:22;;;;;;;13.15;3.40;;;;;;;;;;6249489;22;20046;-83
2023/10/31 03:12:48;;;;;;;9.45;3.15;;;;;;;;;;6248147;22;20015;-83
2023/10/31 03:15:14;;;;;;;9.73;2.78;;;;;;;;;;6248827;22;20494;-83
2023/10/31 03:17:40;;;;;;;9.35;2.90;;;;;;;;;;6248145;22;20027;-83
2023/10/31 03:20:06;;;;;;;7.90;2.67;;;;;;;;;;6248660;22;20360;-83
2023/10/31 03:22:32;;;;;;;9.38;2.67;;;;;;;;;;6244875;22;20448;-83
2023/10/31 03:24:58;;;;;;;6.72;2.55;;;;;;;;;;6246740;22;20515;-84
2023/10/31 03:27:24;;;;;;;8.48;2.92;;;;;;;;;;6248122;22;20126;-84
2023/10/31 03:29:50;;;;;;;7.40;2.90;;;;;;;;;;6248419;22;20077;-83
2023/10/31 03:32:17;;;;;;;6.28;2.40;;;;;;;;;;6247709;22;20015;-84
2023/10/31 03:34:42;;;;;;;7.03;2.50;;;;;;;;;;6247690;22;20093;-84
2023/10/31 03:37:08;;;;;;;9.73;2.97;;;;;;;;;;6247131;22;20476;-84
2023/10/31 03:39:34;;;;;;;5.53;2.58;;;;;;;;;;6245946;22;20087;-84
2023/10/31 03:42:01;;;;;;;7.50;2.90;;;;;;;;;;6244550;22;20099;-85
2023/10/31 03:44:27;;;;;;;4.35;2.47;;;;;;;;;;6247551;22;20012;-84
2023/10/31 03:46:53;;;;;;;7.03;2.53;;;;;;;;;;6247925;22;20145;-84
2023/10/31 03:49:19;;;;;;;6.10;2.60;;;;;;;;;;6247297;22;20490;-84
2023/10/31 03:51:45;;;;;;;5.70;2.70;;;;;;;;;;6247584;22;20012;-83
2023/10/31 03:54:11;;;;;;;7.43;2.63;;;;;;;;;;6247865;22;20020;-83
2023/10/31 03:56:41;;;;;;;5.05;2.20;;;;;;;;;;6247234;22;20016;-83
2023/10/31 03:59:07;;;;;;;4.20;2.50;;;;;;;;;;6247618;22;20199;-84
2023/10/31 04:01:33;;;;;;;7.85;2.30;;;;;;;;;;6247918;22;20483;-84
2023/10/31 04:03:59;;;;;;;6.07;2.55;;;;;;;;;;6247664;22;20016;-84
2023/10/31 04:06:25;;;;;;;6.63;2.17;;;;;;;;;;6247792;22;20023;-85
2023/10/31 04:08:51;;;;;;;8.75;6.63;;;;;;;;;;6249893;22;20016;-84
2023/10/31 04:11:17;;;;;;;6.15;2.20;;;;;;;;;;6250210;22;20329;-84
2023/10/31 04:13:43;;;;;;;6.47;2.72;;;;;;;;;;6250252;22;20016;-83
2023/10/31 04:16:09;;;;;;;5.20;2.40;;;;;;;;;;6249279;22;20023;-83
2023/10/31 04:18:36;;;;;;;3.90;2.00;;;;;;;;;;6250790;22;20024;-83
2023/10/31 04:21:02;;;;;;;3.80;2.30;;;;;;;;;;6250427;22;20061;-83
2023/10/31 04:23:28;;;;;;;3.88;2.38;;;;;;;;;;6249175;22;20019;-83
2023/10/31 04:25:54;;;;;;;4.97;2.03;;;;;;;;;;6249272;22;20020;-84
2023/10/31 04:28:21;;;;;;;4.65;1.90;;;;;;;;;;6250306;22;20371;-84
2023/10/31 04:30:47;;;;;;;6.07;2.03;;;;;;;;;;6250144;22;20440;-84
2023/10/31 04:33:13;;;;;;;3.03;2.00;;;;;;;;;;6249426;22;20016;-83
2023/10/31 04:35:39;;;;;;;3.72;1.98;;;;;;;;;;6249653;22;20012;-84
2023/10/31 04:38:05;;;;;;;3.50;1.85;;;;;;;;;;6249356;22;20024;-84
2023/10/31 04:40:31;;;;;;;3.83;2.00;;;;;;;;;;6250147;22;20027;-84
2023/10/31 04:42:57;;;;;;;5.00;1.98;;;;;;;;;;6249443;22;20024;-85
2023/10/31 04:45:23;;;;;;;7.78;2.60;;;;;;;;;;6249951;22;20333;-85
2023/10/31 04:47:49;;;;;;;5.30;2.30;;;;;;;;;;6248626;22;20448;-85
2023/10/31 04:50:15;;;;;;;5.80;2.40;;;;;;;;;;6250065;22;20054;-85
2023/10/31 04:52:42;;;;;;;6.20;2.72;;;;;;;;;;6249392;22;20016;-85
2023/10/31 04:55:08;;;;;;;6.13;2.30;;;;;;;;;;6249802;22;20042;-84
2023/10/31 04:57:34;;;;;;;5.85;2.38;;;;;;;;;;6249597;22;20089;-85
2023/10/31 05:00:00;;;;;;;6.03;2.88;;;;;;;;;;6249884;22;20061;-85
2023/10/31 05:02:26;;;;;;;4.22;2.67;;;;;;;;;;6249194;22;20023;-85
2023/10/31 05:04:52;;;;;;;5.85;2.75;;;;;;;;;;6249275;22;20023;-85
2023/10/31 05:07:19;;;;;;;5.50;2.92;;;;;;;;;;6249952;22;20054;-85
2023/10/31 05:09:45;;;;;;;6.95;3.13;;;;;;;;;;6249722;22;20019;-84
2023/10/31 05:12:11;;;;;;;7.57;2.47;;;;;;;;;;6249027;22;20019;-85
2023/10/31 05:14:37;;;;;;;9.15;2.95;;;;;;;;;;6249210;22;20054;-84
2023/10/31 05:17:03;;;;;;;4.45;2.40;;;;;;;;;;6249647;22;20030;-83
2023/10/31 05:19:29;;;;;;;7.28;2.80;;;;;;;;;;6251444;22;20099;-83
2023/10/31 05:21:55;;;;;;;8.15;2.70;;;;;;;;;;6249907;22;20730;-86
2023/10/31 05:24:21;;;;;;;5.53;2.50;;;;;;;;;;6249071;22;20022;-85
2023/10/31 05:26:47;;;;;;;6.68;2.20;;;;;;;;;;6249420;22;20016;-84
2023/10/31 05:29:13;;;;;;;6.72;2.25;;;;;;;;;;6249054;22;20026;-83
2023/10/31 05:31:41;;;;;;;4.13;2.42;;;;;;;;;;6250437;22;20016;-83
2023/10/31 05:34:07;;;;;;;8.27;2.80;;;;;;;;;;6226167;22;20045;-83
2023/10/31 05:36:33;;;;;;;6.28;2.60;;;;;;;;;;6250975;22;20512;-83
2023/10/31 05:38:59;;;;;;;5.50;2.70;;;;;;;;;;6250821;22;20054;-83
2023/10/31 05:41:25;;;;;;;6.32;2.67;;;;;;;;;;6250474;22;20019;-83
2023/10/31 05:43:51;;;;;;;7.90;2.80;;;;;;;;;;6247322;22;20399;-83
2023/10/31 05:46:17;;;;;;;7.90;3.05;;;;;;;;;;6249055;22;20023;-83
2023/10/31 05:48:47;;;;;;;6.45;3.08;;;;;;;;;;6249341;22;20023;-83
2023/10/31 05:51:15;;;;;;;4.40;3.05;;;;;;;;;;6249374;22;20022;-83
2023/10/31 05:53:42;;;;;;;6.65;2.80;;;;;;;;;;6248010;22;20066;-83
2023/10/31 05:56:09;;;;;;;5.82;2.50;;;;;;;;;;6249235;22;20029;-83
2023/10/31 05:58:35;;;;;;;5.50;2.20;;;;;;;;;;6248292;22;20019;-83
2023/10/31 06:01:01;;;;;;;7.20;2.47;;;;;;;;;;6249017;22;20016;-83
2023/10/31 06:03:27;;;;;;;4.20;2.10;;;;;;;;;;6247979;22;20084;-83
2023/10/31 06:05:53;;;;;;;5.28;2.20;;;;;;;;;;6249073;22;20023;-83
2023/10/31 06:08:20;;;;;;;5.53;2.10;;;;;;;;;;6248862;22;20444;-83
2023/10/31 06:10:46;;;;;;;5.20;1.83;;;;;;;;;;6249224;22;20023;-83
2023/10/31 06:13:12;;;;;;;3.72;1.95;;;;;;;;;;6248302;22;20019;-83
2023/10/31 06:15:38;;;;;;;6.43;2.17;;;;;;;;;;6248738;22;20041;-83
2023/10/31 06:18:04;;;;;;;4.80;1.92;;;;;;;;;;6247999;22;20020;-83
2023/10/31 06:20:30;;;;;;;3.78;1.73;;;;;;;;;;6247501;22;20015;-83
2023/10/31 06:22:56;;;;;;;4.07;1.70;;;;;;;;;;6246232;22;20154;-83
2023/10/31 06:25:22;;;;;;;3.80;1.65;;;;;;;;;;6248729;22;20012;-83
2023/10/31 06:27:48;;;;;;;5.10;1.80;;;;;;;;;;6245704;22;20024;-84
2023/10/31 06:30:14;;;;;;;7.40;2.38;;;;;;;;;;6249041;22;20027;-85
2023/10/31 06:32:40;;;;;;;2.97;1.90;;;;;;;;;;6247991;22;20556;-84
2023/10/31 06:35:07;;;;;;;5.63;1.83;;;;;;;;;;6249138;22;20047;-84
2023/10/31 06:37:33;;;;;;;4.15;1.80;;;;;;;;;;6248497;22;20031;-83
2023/10/31 06:39:59;;;;;;;6.45;1.90;;;;;;;;;;6248558;22;20023;-83
2023/10/31 06:42:25;;;;;;;4.35;1.60;;;;;;;;;;6248098;22;20317;-83
2023/10/31 06:44:51;;;;;;;2.90;1.50;;;;;;;;;;6247646;22;20018;-84
2023/10/31 06:47:17;;;;;;;3.75;1.40;;;;;;;;;;6248328;22;20016;-84
2023/10/31 06:49:43;;;;;;;6.82;1.50;;;;;;;;;;6248391;22;20020;-84
2023/10/31 06:52:09;;;;;;;5.18;1.50;;;;;;;;;;6249119;22;20517;-84
2023/10/31 06:54:35;;;;;;;3.42;1.42;;;;;;;;;;6248065;22;20015;-84
2023/10/31 06:57:04;;;;;;;3.90;1.40;;;;;;;;;;6248850;22;20024;-85
2023/10/31 06:59:30;;;;;;;4.15;1.38;;;;;;;;;;6246225;22;20045;-85
2023/10/31 07:01:56;;;;;;;7.18;1.48;;;;;;;;;;6221311;22;20093;-85
2023/10/31 07:04:22;;;;;;;6.07;1.65;;;;;;;;;;6247282;22;20122;-84
2023/10/31 07:06:48;;;;;;;3.53;1.33;;;;;;;;;;6247873;22;20094;-85
2023/10/31 07:09:14;;;;;;;7.05;1.40;;;;;;;;;;6248205;22;20019;-86
2023/10/31 07:11:40;;;;;;;5.00;1.50;;;;;;;;;;6248702;22;20114;-85
2023/10/31 07:14:06;;;;;;;2.60;1.30;;;;;;;;;;6248704;22;20348;-85
2023/10/31 07:16:33;;;;;;;5.93;1.52;;;;;;;;;;6248607;22;20334;-85
2023/10/31 07:18:59;;;;;;;5.43;1.58;;;;;;;;;;6247120;22;20015;-85
2023/10/31 07:21:26;;;;;;;4.90;1.85;;;;;;;;;;6249321;22;20027;-84
2023/10/31 07:23:52;;;;;;;7.63;1.80;;;;;;;;;;6250559;22;20025;-85
2023/10/31 07:26:18;;;;;;;7.07;1.85;;;;;;;;;;6249741;22;20344;-84
2023/10/31 07:28:44;;;;;;;6.25;1.52;;;;;;;;;;6250371;22;20448;-84
2023/10/31 07:31:10;;;;;;;4.75;1.83;;;;;;;;;;6249512;22;20020;-85
2023/10/31 07:33:36;;;;;;;7.45;2.00;;;;;;;;;;6246788;22;20150;-85
2023/10/31 07:36:03;;;;;;;8.45;1.95;;;;;;;;;;6248723;22;20088;-85
2023/10/31 07:38:29;;;;;;;10.05;2.20;;;;;;;;;;6248320;22;20087;-84
2023/10/31 07:40:55;;;;;;;8.77;1.90;;;;;;;;;;6248304;22;20058;-86
2023/10/31 07:43:21;;;;;;;9.07;1.92;;;;;;;;;;6250515;22;20506;-85
2023/10/31 07:45:47;;;;;;;10.02;2.15;;;;;;;;;;6251483;22;20020;-84
2023/10/31 07:48:14;;;;;;;6.38;2.00;;;;;;;;;;6252640;22;20066;-83
2023/10/31 07:50:40;;;;;;;5.40;1.70;;;;;;;;;;6253095;22;20027;-84
2023/10/31 07:53:06;;;;;;;9.02;1.92;;;;;;;;;;6254190;22;20382;-85
2023/10/31 07:55:35;;;;;;;7.78;1.77;;;;;;;;;;6255014;22;20046;-86
2023/10/31 07:58:02;;;;;;;5.70;1.65;;;;;;;;;;6254159;22;20027;-84
2023/10/31 08:00:28;;;;;;;8.30;2.33;;;;;;;;;;6230162;22;20400;-85
2023/10/31 08:02:54;;;;;;;8.32;1.77;;;;;;;;;;6253752;22;20360;-85
2023/10/31 08:05:20;;;;;;;5.18;1.88;;;;;;;;;;6253808;22;20416;-84
2023/10/31 08:07:46;;;;;;;11.13;2.00;;;;;;;;;;6228166;22;20022;-85
2023/10/31 08:10:12;;;;;;;7.50;1.60;;;;;;;;;;6254398;22;20011;-85
2023/10/31 08:12:41;;;;;;;5.28;1.52;;;;;;;;;;6228068;22;20098;-86
2023/10/31 08:15:08;;;;;;;6.25;2.13;;;;;;;;;;6253032;22;20016;-85
2023/10/31 08:17:34;;;;;;;8.63;2.00;;;;;;;;;;6227469;22;20022;-86
2023/10/31 08:20:03;;;;;;;7.65;1.80;;;;;;;;;;6226840;22;20073;-85
2023/10/31 08:22:29;;;;;;;5.20;2.50;;;;;;;;;;6227782;22;20038;-87
2023/10/31 08:24:55;;;;;;;3.97;1.48;;;;;;;;;;6227780;22;20011;-85
2023/10/31 08:27:21;;;;;;;5.20;1.20;;;;;;;;;;6228578;22;20012;-86
2023/10/31 08:29:47;;;;;;;10.18;2.35;;;;;;;;;;6228651;22;20105;-87
2023/10/31 08:32:13;;;;;;;4.00;1.27;;;;;;;;;;6227965;22;20022;-86
2023/10/31 08:34:39;;;;;;;7.63;2.15;;;;;;;;;;6253668;22;20035;-85
2023/10/31 08:37:06;;;;;;;7.25;1.95;;;;;;;;;;6228034;22;20016;-86
2023/10/31 08:39:32;;;;;;;6.00;1.30;;;;;;;;;;6227816;22;20027;-86
2023/10/31 08:41:59;;;;;;;4.95;1.60;;;;;;;;;;6252160;22;20018;-85
2023/10/31 08:44:25;;;;;;;4.97;1.13;;;;;;;;;;6227245;22;20331;-86
2023/10/31 08:46:51;;;;;;;2.45;0.88;;;;;;;;;;6225978;22;20016;-86
2023/10/31 08:49:18;;;;;;;4.05;1.50;;;;;;;;;;6225788;22;20019;-86
2023/10/31 08:51:44;;;;;;;4.13;1.50;;;;;;;;;;6226127;22;20591;-86
2023/10/31 08:54:11;;;;;;;2.95;1.00;;;;;;;;;;6224624;22;20330;-86
2023/10/31 08:56:37;;;;;;;5.05;1.30;;;;;;;;;;6224316;22;20020;-86
2023/10/31 08:59:03;;;;;;;6.72;1.60;;;;;;;;;;6224639;22;20015;-86
2023/10/31 09:01:29;;;;;;;5.82;1.30;;;;;;;;;;6249329;22;20022;-85
2023/10/31 09:03:55;;;;;;;7.72;1.50;;;;;;;;;;6249375;22;20015;-85
2023/10/31 09:06:22;;;;;;;5.50;1.50;;;;;;;;;;6248336;22;20048;-85
2023/10/31 09:08:48;;;;;;;5.20;1.80;;;;;;;;;;6224942;22;20023;-85
2023/10/31 09:11:14;;;;;;;6.88;1.70;;;;;;;;;;6224817;22;20016;-85
2023/10/31 09:13:40;;;;;;;4.95;1.73;;;;;;;;;;6249141;22;20012;-85
2023/10/31 09:16:07;;;;;;;4.72;1.60;;;;;;;;;;6223931;22;20372;-85
2023/10/31 09:18:34;;;;;;;4.85;2.20;;;;;;;;;;6225246;22;20051;-85
2023/10/31 09:21:00;;;;;;;5.72;1.65;;;;;;;;;;6224958;22;20066;-85
2023/10/31 09:23:26;;;;;;;6.20;1.77;;;;;;;;;;6224524;22;20019;-85
2023/10/31 09:25:52;;;;;;;7.20;1.92;;;;;;;;;;6224299;22;20118;-85
2023/10/31 09:28:18;;;;;;;4.57;1.50;;;;;;;;;;6249794;22;20027;-85
2023/10/31 09:30:45;;;;;;;6.28;1.67;;;;;;;;;;6224935;22;20020;-86
2023/10/31 09:33:11;;;;;;;6.00;1.60;;;;;;;;;;6224544;22;20047;-85
2023/10/31 09:35:37;;;;;;;4.82;1.38;;;;;;;;;;6224879;22;20062;-85
2023/10/31 09:38:03;;;;;;;3.97;1.52;;;;;;;;;;6249931;22;20012;-85
2023/10/31 09:40:29;;;;;;;5.43;1.85;;;;;;;;;;6249931;22;20016;-86
2023/10/31 09:42:55;;;;;;;9.82;2.00;;;;;;;;;;6224364;22;20015;-85
2023/10/31 09:45:21;;;;;;;6.22;1.88;;;;;;;;;;6250129;22;20095;-85
2023/10/31 09:47:47;;;;;;;3.67;1.50;;;;;;;;;;6249878;22;20470;-86
2023/10/31 09:50:13;;;;;;;5.13;1.25;;;;;;;;;;6250094;22;20020;-85
2023/10/31 09:52:40;;;;;;;5.95;1.70;;;;;;;;;;6224468;22;20059;-85
2023/10/31 09:55:06;;;;;;;4.28;1.63;;;;;;;;;;6249845;22;20023;-86
2023/10/31 09:57:32;;;;;;;6.10;1.50;;;;;;;;;;6250162;22;20024;-85
2023/10/31 09:59:58;;;;;;;4.22;1.65;;;;;;;;;;6224802;22;20016;-85
2023/10/31 10:02:25;;;;;;;5.70;2.20;;;;;;;;;;6224615;22;20034;-85
2023/10/31 10:04:51;;;;;;;7.18;1.45;;;;;;;;;;6249469;22;20016;-85
2023/10/31 10:07:18;;;;;;;7.88;2.20;;;;;;;;;;6249372;22;20027;-85
2023/10/31 10:09:45;;;;;;;5.32;1.92;;;;;;;;;;6249564;22;20019;-86
2023/10/31 10:12:16;;;;;;;6.88;1.77;;;;;;;;;;6249740;22;20387;-86
2023/10/31 10:14:44;;;;;;;6.70;1.75;;;;;;;;;;6225387;22;20016;-84
2023/10/31 10:17:23;;;;;;;4.20;1.50;;;;;;;;;;6224126;22;20027;-85
2023/10/31 10:20:09;;;;;;;5.05;1.92;;;;;;;;;;6249342;22;20022;-85
2023/10/31 10:22:42;;;;;;;6.10;1.67;;;;;;;;;;6224577;22;20042;-84
2023/10/31 10:25:09;;;;;;;6.72;1.90;;;;;;;;;;6249779;22;20027;-86
2023/10/31 10:27:36;;;;;;;4.78;1.70;;;;;;;;;;6224264;22;20526;-85
2023/10/31 10:30:19;;;;;;;4.68;1.48;;;;;;;;;;6224391;22;20015;-86
2023/10/31 10:32:45;;;;;;;5.32;1.73;;;;;;;;;;6250013;22;20016;-87
2023/10/31 10:35:11;;;;;;;5.72;1.65;;;;;;;;;;6225082;22;20027;-83
2023/10/31 10:37:39;;;;;;;6.55;1.80;;;;;;;;;;6250247;22;20051;-85
2023/10/31 10:40:07;;;;;;;4.97;1.80;;;;;;;;;;6225038;22;20058;-85
2023/10/31 10:42:33;;;;;;;6.18;1.70;;;;;;;;;;6224926;22;20058;-85
2023/10/31 10:45:02;;;;;;;5.35;1.58;;;;;;;;;;6224973;22;20046;-84
2023/10/31 10:47:29;;;;;;;5.05;2.20;;;;;;;;;;6224261;22;20020;-84
2023/10/31 10:49:58;;;;;;;6.82;1.88;;;;;;;;;;6224887;22;20059;-84
2023/10/31 10:52:29;;;;;;;9.85;2.38;;;;;;;;;;6224266;22;20026;-84
2023/10/31 10:54:55;;;;;;;6.72;1.60;;;;;;;;;;6249470;22;20020;-85
2023/10/31 10:57:29;;;;;;;6.05;1.70;;;;;;;;;;6224201;22;20022;-85
2023/10/31 10:59:56;;;;;;;4.90;1.73;;;;;;;;;;6249332;22;20016;-84
2023/10/31 11:02:23;;;;;;;9.40;2.17;;;;;;;;;;6224724;22;20026;-85
2023/10/31 11:04:50;;;;;;;8.30;2.10;;;;;;;;;;6250545;22;20015;-86
2023/10/31 11:07:17;;;;;;;4.13;1.70;;;;;;;;;;6225246;22;20012;-84
2023/10/31 11:09:43;;;;;;;3.47;1.50;;;;;;;;;;6224623;22;20020;-86
2023/10/31 11:12:10;;;;;;;5.70;1.52;;;;;;;;;;6225444;22;20023;-86
2023/10/31 11:14:37;;;;;;;5.68;1.92;;;;;;;;;;6224645;22;20187;-85
2023/10/31 11:17:10;;;;;;;8.63;2.15;;;;;;;;;;6223444;22;20020;-86
2023/10/31 11:19:36;;;;;;;5.63;1.92;;;;;;;;;;6249235;22;20019;-85
2023/10/31 11:22:03;;;;;;;7.55;1.98;;;;;;;;;;6224384;22;20384;-85
2023/10/31 11:24:31;;;;;;;4.70;2.25;;;;;;;;;;6224383;22;20047;-85
2023/10/31 11:27:01;;;;;;;3.13;1.60;;;;;;;;;;6250467;22;20015;-85
2023/10/31 11:29:27;;;;;;;4.55;1.70;;;;;;;;;;6249278;22;20352;-85
2023/10/31 11:31:56;;;;;;;5.13;1.50;;;;;;;;;;6223919;22;20265;-84
2023/10/31 11:34:26;;;;;;;3.97;1.48;;;;;;;;;;6225430;22;20084;-88
2023/10/31 11:36:52;;;;;;;6.43;1.77;;;;;;;;;;6224710;22;20012;-87
2023/10/31 11:39:26;;;;;;;5.85;1.52;;;;;;;;;;6228133;22;20047;-86
2023/10/31 11:41:56;;;;;;;5.05;1.52;;;;;;;;;;6228320;22;20452;-86
2023/10/31 11:44:23;;;;;;;5.50;1.50;;;;;;;;;;6227212;22;20053;-86
2023/10/31 11:47:00;;;;;;;4.45;1.50;;;;;;;;;;6228330;22;20041;-90
2023/10/31 11:49:49;;;;;;;4.25;2.05;;;;;;;;;;6228528;22;20011;-85
2023/10/31 11:52:16;;;;;;;4.13;1.35;;;;;;;;;;6211559;22;20054;-86
2023/10/31 11:54:42;;;;;;;4.63;1.70;;;;;;;;;;6251113;22;20022;-86
2023/10/31 11:57:08;;;;;;;4.75;1.40;;;;;;;;;;6226317;22;20019;-87
2023/10/31 11:59:38;;;;;;;7.28;1.85;;;;;;;;;;6226280;22;20074;-87
2023/10/31 12:02:16;;;;;;;5.85;1.70;;;;;;;;;;6252501;22;20020;-86
2023/10/31 12:04:42;;;;;;;5.20;1.90;;;;;;;;;;6252136;22;20022;-87
2023/10/31 12:07:09;;;;;;;3.92;1.50;;;;;;;;;;6227703;22;20019;-89
2023/10/31 12:09:46;;;;;;;4.28;1.35;;;;;;;;;;6227695;22;20023;-90
2023/10/31 12:12:13;;;;;;;2.58;1.58;;;;;;;;;;6227251;22;20063;-89
2023/10/31 12:14:42;;;;;;;5.95;1.48;;;;;;;;;;6228104;22;20023;-90
2023/10/31 12:17:09;;;;;;;5.18;1.92;;;;;;;;;;6226763;22;20062;-88
2023/10/31 12:19:36;;;;;;;5.13;1.63;;;;;;;;;;6227361;22;20484;-89
2023/10/31 12:22:02;;;;;;;3.70;1.38;;;;;;;;;;6226601;22;20035;-89
2023/10/31 12:24:28;;;;;;;6.38;1.80;;;;;;;;;;6226027;22;20077;-87
2023/10/31 12:26:55;;;;;;;3.13;1.63;;;;;;;;;;6224908;22;20098;-88
2023/10/31 12:29:27;;;;;;;6.95;2.47;;;;;;;;;;6225624;22;20042;-88
2023/10/31 12:31:54;;;;;;;7.63;1.90;;;;;;;;;;6226566;22;20015;-88
2023/10/31 12:34:21;;;;;;;5.07;1.77;;;;;;;;;;6228006;22;20015;-90
2023/10/31 12:36:48;;;;;;;7.32;1.75;;;;;;;;;;6227506;22;20443;-88
2023/10/31 12:39:14;;;;;;;5.47;1.50;;;;;;;;;;6226922;22;20016;-88
2023/10/31 12:41:41;;;;;;;4.55;1.63;;;;;;;;;;6226401;22;20016;-88
2023/10/31 12:44:10;;;;;;;4.18;1.52;;;;;;;;;;6226952;22;20090;-88
2023/10/31 12:46:39;;;;;;;4.13;1.80;;;;;;;;;;6227041;22;20024;-88
2023/10/31 12:49:11;;;;;;;4.00;1.40;;;;;;;;;;6226583;22;20022;-88
2023/10/31 12:51:37;;;;;;;4.40;1.50;;;;;;;;;;6225531;22;20019;-88
2023/10/31 12:54:03;;;;;;;3.20;1.23;;;;;;;;;;6225060;22;20054;-88
2023/10/31 12:56:42;;;;;;;4.40;1.70;;;;;;;;;;6251631;22;20440;-88
2023/10/31 12:59:09;;;;;;;4.15;1.60;;;;;;;;;;6225406;22;20105;-88
2023/10/31 13:01:36;;;;;;;3.65;1.38;;;;;;;;;;6224904;22;20099;-87
2023/10/31 13:04:06;;;;;;;5.63;1.70;;;;;;;;;;6225395;22;20041;-88
2023/10/31 13:06:32;;;;;;;4.80;1.50;;;;;;;;;;6225104;22;20031;-87
2023/10/31 13:08:59;;;;;;;3.88;2.05;;;;;;;;;;6225080;22;20033;-88
2023/10/31 13:11:29;;;;;;;5.25;1.65;;;;;;;;;;6251149;22;20090;-88
2023/10/31 13:13:55;;;;;;;4.65;1.80;;;;;;;;;;6250967;22;20030;-88
2023/10/31 13:16:21;;;;;;;3.35;1.30;;;;;;;;;;6225177;22;20020;-87
2023/10/31 13:18:48;;;;;;;4.68;1.60;;;;;;;;;;6223564;22;20011;-87
2023/10/31 13:21:16;;;;;;;3.53;1.27;;;;;;;;;;6224981;22;20018;-87
2023/10/31 13:23:45;;;;;;;2.70;1.30;;;;;;;;;;6225688;22;20098;-89
2023/10/31 13:26:12;;;;;;;4.15;1.80;;;;;;;;;;6226672;22;20098;-88
2023/10/31 13:28:39;;;;;;;4.53;1.60;;;;;;;;;;6225905;22;20043;-89
2023/10/31 13:31:06;;;;;;;4.15;1.50;;;;;;;;;;6224963;22;20016;-89
2023/10/31 13:33:33;;;;;;;4.85;1.70;;;;;;;;;;6224209;22;20022;-88
2023/10/31 13:35:59;;;;;;;2.83;1.27;;;;;;;;;;6224981;22;20011;-88
2023/10/31 13:38:25;;;;;;;2.80;1.42;;;;;;;;;;6224938;22;20023;-88
2023/10/31 13:40:51;;;;;;;3.88;1.50;;;;;;;;;;6224744;22;20020;-88
2023/10/31 13:43:18;;;;;;;4.18;1.67;;;;;;;;;;6224772;22;20016;-88
2023/10/31 13:45:46;;;;;;;4.95;1.40;;;;;;;;;;6224677;22;20027;-88
2023/10/31 13:48:14;;;;;;;2.45;1.20;;;;;;;;;;6224420;22;20042;-88
2023/10/31 13:50:41;;;;;;;2.65;1.30;;;;;;;;;;6224827;22;20023;-88
2023/10/31 13:53:07;;;;;;;6.05;1.70;;;;;;;;;;6224111;22;20016;-88
2023/10/31 13:55:33;;;;;;;4.93;1.38;;;;;;;;;;6224537;22;20460;-88
2023/10/31 13:58:00;;;;;;;3.35;1.50;;;;;;;;;;6224626;22;20020;-88
2023/10/31 14:00:26;;;;;;;5.85;1.65;;;;;;;;;;6223820;22;20016;-88
2023/10/31 14:02:54;;;;;;;4.05;1.60;;;;;;;;;;6224655;22;20022;-88
2023/10/31 14:05:20;;;;;;;3.42;1.70;;;;;;;;;;6224824;22;20099;-89
2023/10/31 14:07:46;;;;;;;5.25;1.80;;;;;;;;;;6224461;22;20016;-88
2023/10/31 14:10:32;;;;;;;5.57;1.50;;;;;;;;;;6225164;22;20436;-91
2023/10/31 14:12:58;;;;;;;5.25;1.73;;;;;;;;;;6226428;22;20034;-92
2023/10/31 14:15:24;;;;;;;2.83;1.17;;;;;;;;;;6225427;22;20336;-89
2023/10/31 14:17:51;;;;;;;2.25;1.13;;;;;;;;;;6224878;22;20023;-89
2023/10/31 14:20:17;;;;;;;3.47;1.27;;;;;;;;;;6224413;22;20042;-88
2023/10/31 14:22:49;;;;;;;6.07;1.90;;;;;;;;;;6224821;22;20046;-90
2023/10/31 14:25:16;;;;;;;4.55;1.67;;;;;;;;;;6224978;22;20020;-89
2023/10/31 14:27:43;;;;;;;2.70;1.30;;;;;;;;;;6224618;22;20517;-89
2023/10/31 14:30:09;;;;;;;2.28;1.20;;;;;;;;;;6224628;22;20448;-88
2023/10/31 14:32:35;;;;;;;2.22;1.15;;;;;;;;;;6224717;22;20019;-88
2023/10/31 14:35:02;;;;;;;5.07;1.52;;;;;;;;;;6224703;22;20448;-88
2023/10/31 14:37:28;;;;;;;3.60;1.30;;;;;;;;;;6224440;22;20019;-89
2023/10/31 14:39:54;;;;;;;5.55;1.92;;;;;;;;;;6225887;22;20011;-89
2023/10/31 14:42:20;;;;;;;3.53;1.40;;;;;;;;;;6252565;22;20069;-88